메인 페이지
METAR-TAF:

METAR-TAF

공항 :

베를린, 독일

베를린 테겔 국제공항

위도: 52-34N, 경도: 013-19E, 고도: 37m

현재 날씨관측

예보는 37분 전, 05:20시(UTC)에 발표되었습니다.
동북동6kt풍과 풍을 오가는
온도 -1°C
습도 80%
기압 1019 hPa
시정: 9000m

METAR: EDDT 200520Z 07006KT 010V100 9000 NSC M01/M04 Q1019 NOSIG

시각: 06:57 (05:57 UTC)

예보

예보는 57분 전, 05:00시(UTC)에 발표되었습니다.
예보 대상 시간: 20일 06시부터 21일 06시까지 (UTC)
동북동9kt
시정 10km 이상
1500m 미만 상공 구름 및 적란운 없음
확률 30% :
일시적
20일 06시부터 20일 09시까지 (UTC)
시정: 4000m
박무
전환 중
20일 17시부터 20일 19시까지 (UTC)
북동4kt

TAF: EDDT 200500Z 2006/2106 07009KT CAVOK PROB30 TEMPO 2006/2009 4000 BR BECMG 2017/2019 04004KT

4,000개 이상의 공항 관측 자료 및 예보 (METAR 및 TAF 보고).

지도상에서 검색 가능한 기상관측소가 노란 점과 빨간 점으로 표시되어 있습니다.

기상관측소 명을 보려면 표시 위로 마우스를 이동하세요.

날씨 관측과 예보를 보려면 클릭하세요.

지도 변경 : 확대하려면 엑스 표시가 있는 녹색 버튼, 축소하려면 빼기 표시가 있는 녹색 버튼, 다음 페이지의 지도를 보려면 녹색 화살표를 클릭하세요.


METAR-TAF: